sensor_id;sensor_type;location;lat;lon;timestamp;pressure;altitude;pressure_sealevel;temperature;humidity
10518;BME280;5307;42.548;22.968;2024-03-08T00:00:06;93842.69;;;5.00;100.00
10518;BME280;5307;42.548;22.968;2024-03-08T00:02:37;93840.81;;;4.97;100.00
10518;BME280;5307;42.548;22.968;2024-03-08T00:05:05;93843.88;;;4.99;100.00
10518;BME280;5307;42.548;22.968;2024-03-08T00:07:35;93848.84;;;5.00;100.00
10518;BME280;5307;42.548;22.968;2024-03-08T00:10:03;93844.50;;;4.83;100.00
10518;BME280;5307;42.548;22.968;2024-03-08T00:12:30;93836.50;;;4.99;100.00
10518;BME280;5307;42.548;22.968;2024-03-08T00:14:57;93845.09;;;4.94;100.00
10518;BME280;5307;42.548;22.968;2024-03-08T00:17:24;93836.72;;;4.85;100.00
10518;BME280;5307;42.548;22.968;2024-03-08T00:19:52;93842.81;;;4.93;100.00
10518;BME280;5307;42.548;22.968;2024-03-08T00:22:19;93846.09;;;4.81;100.00
10518;BME280;5307;42.548;22.968;2024-03-08T00:24:48;93843.75;;;4.83;100.00
10518;BME280;5307;42.548;22.968;2024-03-08T00:27:16;93848.38;;;4.82;100.00
10518;BME280;5307;42.548;22.968;2024-03-08T00:29:42;93840.63;;;4.84;100.00
10518;BME280;5307;42.548;22.968;2024-03-08T00:32:10;93839.91;;;4.80;100.00
10518;BME280;5307;42.548;22.968;2024-03-08T00:34:37;93847.28;;;4.53;100.00
10518;BME280;5307;42.548;22.968;2024-03-08T00:37:04;93835.09;;;4.64;100.00
10518;BME280;5307;42.548;22.968;2024-03-08T00:39:31;93840.44;;;4.71;100.00
10518;BME280;5307;42.548;22.968;2024-03-08T00:42:00;93840.28;;;4.55;100.00
10518;BME280;5307;42.548;22.968;2024-03-08T00:44:26;93840.63;;;4.84;100.00
10518;BME280;5307;42.548;22.968;2024-03-08T00:46:53;93826.00;;;4.78;100.00
10518;BME280;5307;42.548;22.968;2024-03-08T00:49:20;93830.78;;;4.70;100.00
10518;BME280;5307;42.548;22.968;2024-03-08T00:51:47;93823.63;;;4.84;100.00
10518;BME280;5307;42.548;22.968;2024-03-08T00:54:13;93828.28;;;4.83;100.00
10518;BME280;5307;42.548;22.968;2024-03-08T00:56:41;93834.19;;;4.74;100.00
10518;BME280;5307;42.548;22.968;2024-03-08T00:59:10;93826.28;;;4.60;100.00
10518;BME280;5307;42.548;22.968;2024-03-08T01:01:36;93821.34;;;4.82;100.00
10518;BME280;5307;42.548;22.968;2024-03-08T01:04:03;93818.53;;;4.62;100.00
10518;BME280;5307;42.548;22.968;2024-03-08T01:06:30;93805.28;;;4.44;100.00
10518;BME280;5307;42.548;22.968;2024-03-08T01:08:57;93811.38;;;4.52;100.00
10518;BME280;5307;42.548;22.968;2024-03-08T01:11:23;93803.06;;;4.63;100.00
10518;BME280;5307;42.548;22.968;2024-03-08T01:13:50;93816.16;;;4.68;100.00
10518;BME280;5307;42.548;22.968;2024-03-08T01:16:20;93800.00;;;4.61;100.00
10518;BME280;5307;42.548;22.968;2024-03-08T01:18:47;93800.25;;;4.70;100.00
10518;BME280;5307;42.548;22.968;2024-03-08T01:21:14;93809.72;;;4.58;100.00
10518;BME280;5307;42.548;22.968;2024-03-08T01:23:40;93801.31;;;4.53;100.00
10518;BME280;5307;42.548;22.968;2024-03-08T01:26:07;93805.00;;;4.62;100.00
10518;BME280;5307;42.548;22.968;2024-03-08T01:28:34;93788.78;;;4.62;100.00
10518;BME280;5307;42.548;22.968;2024-03-08T01:31:02;93790.47;;;4.80;100.00
10518;BME280;5307;42.548;22.968;2024-03-08T01:33:30;93795.56;;;4.74;100.00
10518;BME280;5307;42.548;22.968;2024-03-08T01:35:57;93785.16;;;4.72;100.00
10518;BME280;5307;42.548;22.968;2024-03-08T01:38:24;93783.72;;;4.64;100.00
10518;BME280;5307;42.548;22.968;2024-03-08T01:40:51;93792.22;;;4.66;100.00
10518;BME280;5307;42.548;22.968;2024-03-08T01:43:19;93786.31;;;4.71;100.00
10518;BME280;5307;42.548;22.968;2024-03-08T01:45:46;93780.97;;;4.68;100.00
10518;BME280;5307;42.548;22.968;2024-03-08T01:48:13;93780.44;;;4.76;100.00
10518;BME280;5307;42.548;22.968;2024-03-08T01:50:42;93773.78;;;4.58;100.00
10518;BME280;5307;42.548;22.968;2024-03-08T01:53:10;93775.84;;;4.73;100.00
10518;BME280;5307;42.548;22.968;2024-03-08T01:55:38;93781.41;;;4.66;100.00
10518;BME280;5307;42.548;22.968;2024-03-08T01:58:06;93775.16;;;4.69;100.00
10518;BME280;5307;42.548;22.968;2024-03-08T02:00:33;93781.28;;;4.73;100.00
10518;BME280;5307;42.548;22.968;2024-03-08T02:03:02;93775.91;;;4.70;100.00
10518;BME280;5307;42.548;22.968;2024-03-08T02:05:29;93776.09;;;4.59;100.00
10518;BME280;5307;42.548;22.968;2024-03-08T02:07:58;93781.03;;;4.64;100.00
10518;BME280;5307;42.548;22.968;2024-03-08T02:10:25;93776.63;;;4.74;100.00
10518;BME280;5307;42.548;22.968;2024-03-08T02:12:51;93771.63;;;4.72;100.00
10518;BME280;5307;42.548;22.968;2024-03-08T02:15:18;93769.06;;;4.65;100.00
10518;BME280;5307;42.548;22.968;2024-03-08T02:17:46;93772.09;;;4.67;100.00
10518;BME280;5307;42.548;22.968;2024-03-08T02:20:13;93771.50;;;4.56;100.00
10518;BME280;5307;42.548;22.968;2024-03-08T02:22:43;93764.78;;;4.64;100.00
10518;BME280;5307;42.548;22.968;2024-03-08T02:25:12;93765.63;;;4.38;100.00
10518;BME280;5307;42.548;22.968;2024-03-08T02:27:39;93769.56;;;4.57;100.00
10518;BME280;5307;42.548;22.968;2024-03-08T02:30:07;93763.63;;;4.42;100.00
10518;BME280;5307;42.548;22.968;2024-03-08T02:32:42;93757.78;;;4.43;100.00
10518;BME280;5307;42.548;22.968;2024-03-08T02:35:09;93763.81;;;4.55;100.00
10518;BME280;5307;42.548;22.968;2024-03-08T02:37:35;93760.91;;;4.42;100.00
10518;BME280;5307;42.548;22.968;2024-03-08T02:40:06;93766.41;;;4.35;100.00
10518;BME280;5307;42.548;22.968;2024-03-08T02:42:33;93766.72;;;4.40;100.00
10518;BME280;5307;42.548;22.968;2024-03-08T02:44:59;93771.03;;;4.38;100.00
10518;BME280;5307;42.548;22.968;2024-03-08T02:47:26;93762.09;;;4.41;100.00
10518;BME280;5307;42.548;22.968;2024-03-08T02:49:56;93764.66;;;4.25;100.00
10518;BME280;5307;42.548;22.968;2024-03-08T02:52:22;93771.13;;;4.31;100.00
10518;BME280;5307;42.548;22.968;2024-03-08T02:54:49;93762.53;;;4.36;100.00
10518;BME280;5307;42.548;22.968;2024-03-08T02:57:17;93765.63;;;4.38;100.00
10518;BME280;5307;42.548;22.968;2024-03-08T02:59:44;93767.22;;;4.32;100.00
10518;BME280;5307;42.548;22.968;2024-03-08T03:02:11;93769.38;;;4.44;100.00
10518;BME280;5307;42.548;22.968;2024-03-08T03:04:39;93769.38;;;4.44;100.00
10518;BME280;5307;42.548;22.968;2024-03-08T03:07:06;93774.78;;;4.44;100.00
10518;BME280;5307;42.548;22.968;2024-03-08T03:09:33;93776.38;;;4.41;100.00
10518;BME280;5307;42.548;22.968;2024-03-08T03:12:00;93779.78;;;4.45;100.00
10518;BME280;5307;42.548;22.968;2024-03-08T03:14:29;93793.06;;;4.36;100.00
10518;BME280;5307;42.548;22.968;2024-03-08T03:16:56;93793.97;;;4.53;100.00
10518;BME280;5307;42.548;22.968;2024-03-08T03:19:23;93798.47;;;4.60;100.00
10518;BME280;5307;42.548;22.968;2024-03-08T03:21:50;93805.56;;;4.50;100.00
10518;BME280;5307;42.548;22.968;2024-03-08T03:24:18;93805.56;;;4.50;100.00
10518;BME280;5307;42.548;22.968;2024-03-08T03:26:46;93802.53;;;4.48;100.00
10518;BME280;5307;42.548;22.968;2024-03-08T03:29:15;93805.56;;;4.50;100.00
10518;BME280;5307;42.548;22.968;2024-03-08T03:31:43;93809.44;;;4.53;100.00
10518;BME280;5307;42.548;22.968;2024-03-08T03:34:12;93806.72;;;4.53;100.00
10518;BME280;5307;42.548;22.968;2024-03-08T03:36:38;93809.44;;;4.49;100.00
10518;BME280;5307;42.548;22.968;2024-03-08T03:39:07;93811.25;;;4.59;100.00
10518;BME280;5307;42.548;22.968;2024-03-08T03:41:38;93819.63;;;4.68;100.00
10518;BME280;5307;42.548;22.968;2024-03-08T03:44:05;93820.03;;;4.67;100.00
10518;BME280;5307;42.548;22.968;2024-03-08T03:46:32;93819.13;;;4.73;100.00
10518;BME280;5307;42.548;22.968;2024-03-08T03:49:00;93827.72;;;4.68;100.00
10518;BME280;5307;42.548;22.968;2024-03-08T03:51:28;93821.91;;;4.70;100.00
10518;BME280;5307;42.548;22.968;2024-03-08T03:53:55;93826.66;;;4.62;100.00
10518;BME280;5307;42.548;22.968;2024-03-08T03:56:25;93822.06;;;4.59;100.00
10518;BME280;5307;42.548;22.968;2024-03-08T03:58:52;93818.66;;;4.55;100.00
10518;BME280;5307;42.548;22.968;2024-03-08T04:01:18;93821.91;;;4.43;100.00
10518;BME280;5307;42.548;22.968;2024-03-08T04:03:46;93820.06;;;4.63;100.00
10518;BME280;5307;42.548;22.968;2024-03-08T04:06:14;93825.03;;;4.68;100.00
10518;BME280;5307;42.548;22.968;2024-03-08T04:08:40;93833.56;;;4.67;100.00
10518;BME280;5307;42.548;22.968;2024-03-08T04:11:07;93832.63;;;4.50;100.00
10518;BME280;5307;42.548;22.968;2024-03-08T04:13:35;93828.56;;;4.65;100.00
10518;BME280;5307;42.548;22.968;2024-03-08T04:16:02;93828.34;;;4.53;100.00
10518;BME280;5307;42.548;22.968;2024-03-08T04:18:33;93832.03;;;4.39;100.00
10518;BME280;5307;42.548;22.968;2024-03-08T04:21:01;93837.25;;;4.50;100.00
10518;BME280;5307;42.548;22.968;2024-03-08T04:23:30;93841.38;;;4.31;100.00
10518;BME280;5307;42.548;22.968;2024-03-08T04:25:56;93837.50;;;4.32;100.00
10518;BME280;5307;42.548;22.968;2024-03-08T04:28:23;93842.00;;;4.42;100.00
10518;BME280;5307;42.548;22.968;2024-03-08T04:30:51;93851.31;;;4.41;100.00
10518;BME280;5307;42.548;22.968;2024-03-08T04:33:18;93854.41;;;4.39;100.00
10518;BME280;5307;42.548;22.968;2024-03-08T04:35:45;93856.44;;;4.32;100.00
10518;BME280;5307;42.548;22.968;2024-03-08T04:38:12;93856.78;;;4.34;100.00
10518;BME280;5307;42.548;22.968;2024-03-08T04:40:40;93856.75;;;4.37;100.00
10518;BME280;5307;42.548;22.968;2024-03-08T04:43:07;93860.81;;;4.49;100.00
10518;BME280;5307;42.548;22.968;2024-03-08T04:45:35;93866.53;;;4.28;100.00
10518;BME280;5307;42.548;22.968;2024-03-08T04:48:02;93865.25;;;4.36;100.00
10518;BME280;5307;42.548;22.968;2024-03-08T04:50:29;93869.28;;;4.24;100.00
10518;BME280;5307;42.548;22.968;2024-03-08T04:52:56;93876.88;;;4.33;100.00
10518;BME280;5307;42.548;22.968;2024-03-08T04:55:23;93870.00;;;4.28;100.00
10518;BME280;5307;42.548;22.968;2024-03-08T04:57:51;93869.00;;;4.45;100.00
10518;BME280;5307;42.548;22.968;2024-03-08T05:00:18;93877.56;;;4.40;100.00
10518;BME280;5307;42.548;22.968;2024-03-08T05:02:46;93873.63;;;4.45;100.00
10518;BME280;5307;42.548;22.968;2024-03-08T05:05:12;93881.41;;;4.43;100.00
10518;BME280;5307;42.548;22.968;2024-03-08T05:07:40;93872.78;;;4.52;100.00
10518;BME280;5307;42.548;22.968;2024-03-08T05:10:09;93888.28;;;4.47;100.00
10518;BME280;5307;42.548;22.968;2024-03-08T05:12:36;93879.66;;;4.56;100.00
10518;BME280;5307;42.548;22.968;2024-03-08T05:15:06;93886.81;;;4.43;100.00
10518;BME280;5307;42.548;22.968;2024-03-08T05:17:33;93897.06;;;4.55;100.00
10518;BME280;5307;42.548;22.968;2024-03-08T05:20:00;93893.28;;;4.49;100.00
10518;BME280;5307;42.548;22.968;2024-03-08T05:22:27;93897.69;;;4.36;100.00
10518;BME280;5307;42.548;22.968;2024-03-08T05:24:54;93898.50;;;4.33;100.00
10518;BME280;5307;42.548;22.968;2024-03-08T05:27:20;93896.56;;;4.37;100.00
10518;BME280;5307;42.548;22.968;2024-03-08T05:29:47;93903.50;;;4.38;100.00
10518;BME280;5307;42.548;22.968;2024-03-08T05:32:15;93903.63;;;4.27;100.00
10518;BME280;5307;42.548;22.968;2024-03-08T05:34:42;93907.09;;;4.28;100.00
10518;BME280;5307;42.548;22.968;2024-03-08T05:37:10;93900.59;;;4.22;100.00
10518;BME280;5307;42.548;22.968;2024-03-08T05:39:36;93907.72;;;4.39;100.00
10518;BME280;5307;42.548;22.968;2024-03-08T05:42:03;93914.47;;;4.24;100.00
10518;BME280;5307;42.548;22.968;2024-03-08T05:44:30;93916.94;;;4.11;100.00
10518;BME280;5307;42.548;22.968;2024-03-08T05:46:57;93910.16;;;4.30;100.00
10518;BME280;5307;42.548;22.968;2024-03-08T05:49:25;93917.00;;;4.38;100.00
10518;BME280;5307;42.548;22.968;2024-03-08T05:51:52;93921.31;;;4.32;100.00
10518;BME280;5307;42.548;22.968;2024-03-08T05:54:19;93925.84;;;4.42;100.00
10518;BME280;5307;42.548;22.968;2024-03-08T05:56:47;93932.59;;;4.27;100.00
10518;BME280;5307;42.548;22.968;2024-03-08T05:59:18;93926.28;;;4.37;100.00
10518;BME280;5307;42.548;22.968;2024-03-08T06:01:45;93936.53;;;4.18;100.00
10518;BME280;5307;42.548;22.968;2024-03-08T06:04:12;93940.78;;;4.50;100.00
10518;BME280;5307;42.548;22.968;2024-03-08T06:06:41;93934.00;;;4.38;100.00
10518;BME280;5307;42.548;22.968;2024-03-08T06:09:07;93947.19;;;4.33;100.00
10518;BME280;5307;42.548;22.968;2024-03-08T06:11:37;93951.22;;;4.17;100.00
10518;BME280;5307;42.548;22.968;2024-03-08T06:14:04;93946.16;;;4.23;100.00
10518;BME280;5307;42.548;22.968;2024-03-08T06:16:31;93956.97;;;4.20;100.00
10518;BME280;5307;42.548;22.968;2024-03-08T06:18:59;93949.63;;;4.24;100.00
10518;BME280;5307;42.548;22.968;2024-03-08T06:21:27;93949.78;;;4.09;100.00
10518;BME280;5307;42.548;22.968;2024-03-08T06:23:55;93945.91;;;4.10;100.00
10518;BME280;5307;42.548;22.968;2024-03-08T06:26:23;93953.50;;;4.23;100.00
10518;BME280;5307;42.548;22.968;2024-03-08T06:28:53;93941.81;;;4.29;100.00
10518;BME280;5307;42.548;22.968;2024-03-08T06:31:20;93949.63;;;4.24;100.00
10518;BME280;5307;42.548;22.968;2024-03-08T06:33:47;93946.47;;;4.29;100.00
10518;BME280;5307;42.548;22.968;2024-03-08T06:36:16;93952.03;;;4.14;100.00
10518;BME280;5307;42.548;22.968;2024-03-08T06:38:44;93951.06;;;4.32;100.00
10518;BME280;5307;42.548;22.968;2024-03-08T06:41:12;93950.13;;;4.45;100.00
10518;BME280;5307;42.548;22.968;2024-03-08T06:43:41;93955.47;;;4.49;100.00
10518;BME280;5307;42.548;22.968;2024-03-08T06:46:08;93955.13;;;4.47;100.00
10518;BME280;5307;42.548;22.968;2024-03-08T06:48:35;93960.50;;;4.51;100.00
10518;BME280;5307;42.548;22.968;2024-03-08T06:51:03;93952.47;;;4.43;100.00
10518;BME280;5307;42.548;22.968;2024-03-08T06:53:30;93964.16;;;4.64;100.00
10518;BME280;5307;42.548;22.968;2024-03-08T06:55:57;93950.66;;;4.64;100.00
10518;BME280;5307;42.548;22.968;2024-03-08T06:58:26;93963.28;;;4.74;100.00
10518;BME280;5307;42.548;22.968;2024-03-08T07:00:53;93966.09;;;4.67;100.00
10518;BME280;5307;42.548;22.968;2024-03-08T07:03:23;93972.97;;;4.71;100.00
10518;BME280;5307;42.548;22.968;2024-03-08T07:05:51;93965.34;;;4.93;100.00
10518;BME280;5307;42.548;22.968;2024-03-08T07:08:18;93969.78;;;5.07;100.00
10518;BME280;5307;42.548;22.968;2024-03-08T07:10:47;93957.94;;;4.97;100.00
10518;BME280;5307;42.548;22.968;2024-03-08T07:13:14;93968.91;;;4.87;100.00
10518;BME280;5307;42.548;22.968;2024-03-08T07:15:43;93951.53;;;4.84;100.00
10518;BME280;5307;42.548;22.968;2024-03-08T07:18:11;93965.38;;;4.90;100.00
10518;BME280;5307;42.548;22.968;2024-03-08T07:20:40;93964.25;;;4.87;100.00
10518;BME280;5307;42.548;22.968;2024-03-08T07:23:07;93963.41;;;4.94;100.00
10518;BME280;5307;42.548;22.968;2024-03-08T07:25:35;93963.00;;;5.22;100.00
10518;BME280;5307;42.548;22.968;2024-03-08T07:28:04;93967.63;;;4.95;100.00
10518;BME280;5307;42.548;22.968;2024-03-08T07:30:31;93972.72;;;4.89;100.00
10518;BME280;5307;42.548;22.968;2024-03-08T07:33:17;93963.22;;;5.04;100.00
10518;BME280;5307;42.548;22.968;2024-03-08T07:35:44;93968.53;;;5.39;100.00
10518;BME280;5307;42.548;22.968;2024-03-08T07:38:12;93973.91;;;5.65;100.00
10518;BME280;5307;42.548;22.968;2024-03-08T07:40:40;93971.56;;;5.68;100.00
10518;BME280;5307;42.548;22.968;2024-03-08T07:43:10;93968.00;;;5.71;100.00
10518;BME280;5307;42.548;22.968;2024-03-08T07:45:36;93967.25;;;5.70;100.00
10518;BME280;5307;42.548;22.968;2024-03-08T07:48:04;93972.41;;;5.61;98.79
10518;BME280;5307;42.548;22.968;2024-03-08T07:50:36;93969.66;;;5.64;97.50
10518;BME280;5307;42.548;22.968;2024-03-08T07:53:03;93966.59;;;5.62;97.83
10518;BME280;5307;42.548;22.968;2024-03-08T07:55:31;93973.06;;;5.69;97.38
10518;BME280;5307;42.548;22.968;2024-03-08T07:58:20;93972.72;;;5.43;96.91
10518;BME280;5307;42.548;22.968;2024-03-08T08:00:46;93972.59;;;5.74;96.20
10518;BME280;5307;42.548;22.968;2024-03-08T08:03:14;93981.03;;;6.03;96.95
10518;BME280;5307;42.548;22.968;2024-03-08T08:05:42;93981.50;;;5.98;96.63
10518;BME280;5307;42.548;22.968;2024-03-08T08:08:09;93975.50;;;6.10;95.10
10518;BME280;5307;42.548;22.968;2024-03-08T08:10:36;93973.56;;;6.30;94.88
10518;BME280;5307;42.548;22.968;2024-03-08T08:13:03;93981.63;;;6.34;94.25
10518;BME280;5307;42.548;22.968;2024-03-08T08:15:30;93975.56;;;6.06;93.37
10518;BME280;5307;42.548;22.968;2024-03-08T08:17:59;93967.44;;;6.26;92.13
10518;BME280;5307;42.548;22.968;2024-03-08T08:20:29;93978.53;;;5.88;91.29
10518;BME280;5307;42.548;22.968;2024-03-08T08:22:57;93973.31;;;6.01;90.90
10518;BME280;5307;42.548;22.968;2024-03-08T08:25:24;93973.91;;;6.32;90.72
10518;BME280;5307;42.548;22.968;2024-03-08T08:27:51;93964.81;;;6.22;89.56
10518;BME280;5307;42.548;22.968;2024-03-08T08:30:19;93963.66;;;6.60;89.72
10518;BME280;5307;42.548;22.968;2024-03-08T08:32:45;93965.13;;;6.44;88.59
10518;BME280;5307;42.548;22.968;2024-03-08T08:35:14;93974.28;;;6.34;88.54
10518;BME280;5307;42.548;22.968;2024-03-08T08:37:41;93972.19;;;6.98;88.58
10518;BME280;5307;42.548;22.968;2024-03-08T08:40:10;93966.66;;;7.70;86.60
10518;BME280;5307;42.548;22.968;2024-03-08T08:42:40;93966.47;;;7.77;85.08
10518;BME280;5307;42.548;22.968;2024-03-08T08:45:07;93959.59;;;7.72;82.80
10518;BME280;5307;42.548;22.968;2024-03-08T08:47:35;93962.81;;;7.67;81.53
10518;BME280;5307;42.548;22.968;2024-03-08T08:50:02;93967.06;;;7.68;81.79
10518;BME280;5307;42.548;22.968;2024-03-08T08:52:29;93961.63;;;7.68;80.75
10518;BME280;5307;42.548;22.968;2024-03-08T09:43:39;93960.44;;;7.37;77.86
10518;BME280;5307;42.548;22.968;2024-03-08T09:46:07;93964.19;;;7.59;77.40
10518;BME280;5307;42.548;22.968;2024-03-08T09:48:43;93962.41;;;7.53;77.74
10518;BME280;5307;42.548;22.968;2024-03-08T09:51:16;93963.44;;;7.75;77.54
10518;BME280;5307;42.548;22.968;2024-03-08T09:53:42;93966.91;;;7.76;77.13
10518;BME280;5307;42.548;22.968;2024-03-08T10:02:27;93956.16;;;8.88;71.73
10518;BME280;5307;42.548;22.968;2024-03-08T10:04:57;93956.97;;;8.72;71.02
10518;BME280;5307;42.548;22.968;2024-03-08T10:07:28;93951.50;;;9.01;70.75
10518;BME280;5307;42.548;22.968;2024-03-08T10:13:22;93961.59;;;8.30;69.66
10518;BME280;5307;42.548;22.968;2024-03-08T10:15:51;93960.47;;;8.15;70.45
10518;BME280;5307;42.548;22.968;2024-03-08T10:18:32;93950.59;;;8.21;70.76
10518;BME280;5307;42.548;22.968;2024-03-08T10:21:03;93946.88;;;8.44;71.02
10518;BME280;5307;42.548;22.968;2024-03-08T10:23:30;93940.72;;;8.56;70.15
10518;BME280;5307;42.548;22.968;2024-03-08T10:25:57;93939.31;;;8.64;68.75
10518;BME280;5307;42.548;22.968;2024-03-08T10:28:24;93937.56;;;9.85;67.86
10518;BME280;5307;42.548;22.968;2024-03-08T10:30:51;93938.97;;;9.29;66.61
10518;BME280;5307;42.548;22.968;2024-03-08T10:33:18;93942.22;;;9.24;66.95
10518;BME280;5307;42.548;22.968;2024-03-08T10:35:46;93929.25;;;9.03;65.13
10518;BME280;5307;42.548;22.968;2024-03-08T10:38:15;93932.09;;;9.12;64.27
10518;BME280;5307;42.548;22.968;2024-03-08T10:40:44;93936.28;;;8.62;63.85
10518;BME280;5307;42.548;22.968;2024-03-08T10:43:18;93924.69;;;8.87;64.74
10518;BME280;5307;42.548;22.968;2024-03-08T10:45:52;93923.56;;;9.48;65.51
10518;BME280;5307;42.548;22.968;2024-03-08T10:48:28;93918.78;;;9.99;63.46
10518;BME280;5307;42.548;22.968;2024-03-08T10:50:59;93917.34;;;9.60;61.84
10518;BME280;5307;42.548;22.968;2024-03-08T10:53:27;93908.31;;;10.20;61.63
10518;BME280;5307;42.548;22.968;2024-03-08T10:55:56;93912.88;;;10.35;63.59
10518;BME280;5307;42.548;22.968;2024-03-08T10:58:24;93905.75;;;10.38;62.24
10518;BME280;5307;42.548;22.968;2024-03-08T11:00:56;93911.66;;;9.67;63.12
10518;BME280;5307;42.548;22.968;2024-03-08T11:03:45;93898.28;;;9.47;61.92
10518;BME280;5307;42.548;22.968;2024-03-08T11:06:17;93898.25;;;9.60;61.26
10518;BME280;5307;42.548;22.968;2024-03-08T11:08:48;93893.03;;;9.53;63.26
10518;BME280;5307;42.548;22.968;2024-03-08T11:11:27;93878.94;;;9.55;64.64
10518;BME280;5307;42.548;22.968;2024-03-08T11:13:55;93893.09;;;9.75;65.08
10518;BME280;5307;42.548;22.968;2024-03-08T11:16:39;93887.69;;;9.49;65.07
10518;BME280;5307;42.548;22.968;2024-03-08T11:19:26;93886.13;;;9.74;63.95
10518;BME280;5307;42.548;22.968;2024-03-08T11:22:03;93875.16;;;10.21;65.59
10518;BME280;5307;42.548;22.968;2024-03-08T11:24:37;93880.47;;;10.25;63.29
10518;BME280;5307;42.548;22.968;2024-03-08T11:27:06;93880.41;;;10.59;62.42
10518;BME280;5307;42.548;22.968;2024-03-08T11:29:38;93885.69;;;9.63;62.27
10518;BME280;5307;42.548;22.968;2024-03-08T11:32:10;93879.44;;;9.28;61.95
10518;BME280;5307;42.548;22.968;2024-03-08T11:34:40;93886.03;;;9.99;63.60
10518;BME280;5307;42.548;22.968;2024-03-08T11:37:13;93866.06;;;9.55;61.09
10518;BME280;5307;42.548;22.968;2024-03-08T11:39:40;93867.84;;;10.18;59.12
10518;BME280;5307;42.548;22.968;2024-03-08T11:42:14;93861.13;;;10.85;59.03
10518;BME280;5307;42.548;22.968;2024-03-08T11:44:41;93853.34;;;9.87;59.53
10518;BME280;5307;42.548;22.968;2024-03-08T11:47:10;93860.16;;;10.48;59.95
10518;BME280;5307;42.548;22.968;2024-03-08T11:49:37;93858.69;;;10.12;59.60
10518;BME280;5307;42.548;22.968;2024-03-08T11:52:04;93864.34;;;9.61;60.43
10518;BME280;5307;42.548;22.968;2024-03-08T11:54:32;93852.91;;;9.88;60.97
10518;BME280;5307;42.548;22.968;2024-03-08T11:56:59;93858.88;;;9.96;61.83
10518;BME280;5307;42.548;22.968;2024-03-08T11:59:27;93855.00;;;9.37;59.99
10518;BME280;5307;42.548;22.968;2024-03-08T12:02:02;93856.91;;;9.62;59.59
10518;BME280;5307;42.548;22.968;2024-03-08T12:04:29;93856.50;;;9.85;59.18
10518;BME280;5307;42.548;22.968;2024-03-08T12:06:59;93854.63;;;9.60;58.14
10518;BME280;5307;42.548;22.968;2024-03-08T12:09:28;93848.16;;;10.01;58.51
10518;BME280;5307;42.548;22.968;2024-03-08T12:11:58;93847.66;;;9.59;56.94
10518;BME280;5307;42.548;22.968;2024-03-08T12:14:25;93849.16;;;9.95;57.63
10518;BME280;5307;42.548;22.968;2024-03-08T12:16:52;93844.97;;;10.03;57.61
10518;BME280;5307;42.548;22.968;2024-03-08T12:19:18;93853.63;;;9.67;57.57
10518;BME280;5307;42.548;22.968;2024-03-08T12:21:45;93843.03;;;9.69;57.86
10518;BME280;5307;42.548;22.968;2024-03-08T12:24:15;93844.69;;;9.66;57.64
10518;BME280;5307;42.548;22.968;2024-03-08T12:26:45;93850.00;;;9.35;57.28
10518;BME280;5307;42.548;22.968;2024-03-08T12:29:22;93851.44;;;9.74;59.40
10518;BME280;5307;42.548;22.968;2024-03-08T12:31:54;93846.31;;;9.64;57.57
10518;BME280;5307;42.548;22.968;2024-03-08T12:34:24;93837.69;;;9.43;59.14
10518;BME280;5307;42.548;22.968;2024-03-08T12:36:52;93827.16;;;9.55;59.29
10518;BME280;5307;42.548;22.968;2024-03-08T12:39:20;93839.44;;;9.72;59.05
10518;BME280;5307;42.548;22.968;2024-03-08T12:41:52;93835.88;;;9.84;59.89
10518;BME280;5307;42.548;22.968;2024-03-08T12:44:20;93824.59;;;9.95;60.23
10518;BME280;5307;42.548;22.968;2024-03-08T12:46:48;93827.91;;;9.90;60.24
10518;BME280;5307;42.548;22.968;2024-03-08T12:49:17;93830.31;;;10.09;60.42
10518;BME280;5307;42.548;22.968;2024-03-08T12:51:44;93828.47;;;9.50;59.35
10518;BME280;5307;42.548;22.968;2024-03-08T12:54:10;93832.53;;;9.80;60.29
10518;BME280;5307;42.548;22.968;2024-03-08T12:56:38;93827.31;;;9.73;59.96
10518;BME280;5307;42.548;22.968;2024-03-08T12:59:06;93826.03;;;9.65;59.34
10518;BME280;5307;42.548;22.968;2024-03-08T13:01:35;93827.19;;;9.76;59.61
10518;BME280;5307;42.548;22.968;2024-03-08T13:04:03;93826.66;;;9.47;58.26
10518;BME280;5307;42.548;22.968;2024-03-08T13:06:32;93824.91;;;9.40;58.79
10518;BME280;5307;42.548;22.968;2024-03-08T13:08:59;93817.50;;;9.75;59.09
10518;BME280;5307;42.548;22.968;2024-03-08T13:11:30;93830.00;;;9.51;58.48
10518;BME280;5307;42.548;22.968;2024-03-08T13:13:59;93824.44;;;9.55;59.64
10518;BME280;5307;42.548;22.968;2024-03-08T13:16:27;93835.50;;;9.73;60.13
10518;BME280;5307;42.548;22.968;2024-03-08T13:18:56;93832.91;;;9.57;60.04
10518;BME280;5307;42.548;22.968;2024-03-08T13:21:23;93827.09;;;9.45;59.37
10518;BME280;5307;42.548;22.968;2024-03-08T13:23:50;93831.56;;;9.74;60.46
10518;BME280;5307;42.548;22.968;2024-03-08T13:26:18;93822.81;;;9.57;59.06
10518;BME280;5307;42.548;22.968;2024-03-08T13:28:45;93827.56;;;9.31;58.56
10518;BME280;5307;42.548;22.968;2024-03-08T13:31:14;93829.63;;;9.27;58.72
10518;BME280;5307;42.548;22.968;2024-03-08T13:33:41;93826.72;;;9.56;60.14
10518;BME280;5307;42.548;22.968;2024-03-08T13:36:12;93828.66;;;9.56;60.18
10518;BME280;5307;42.548;22.968;2024-03-08T13:38:42;93824.47;;;9.42;59.25
10518;BME280;5307;42.548;22.968;2024-03-08T13:41:11;93828.09;;;9.26;59.18
10518;BME280;5307;42.548;22.968;2024-03-08T13:43:40;93824.47;;;9.42;59.19
10518;BME280;5307;42.548;22.968;2024-03-08T13:46:07;93829.25;;;9.50;60.01
10518;BME280;5307;42.548;22.968;2024-03-08T13:48:35;93832.41;;;9.49;59.89
10518;BME280;5307;42.548;22.968;2024-03-08T13:51:03;93831.25;;;9.25;58.42
10518;BME280;5307;42.548;22.968;2024-03-08T13:53:31;93826.06;;;9.17;58.00
10518;BME280;5307;42.548;22.968;2024-03-08T13:55:58;93823.25;;;9.43;58.59
10518;BME280;5307;42.548;22.968;2024-03-08T13:58:25;93832.25;;;9.31;58.36
10518;BME280;5307;42.548;22.968;2024-03-08T14:00:52;93835.88;;;9.15;58.11
10518;BME280;5307;42.548;22.968;2024-03-08T14:03:19;93830.78;;;9.39;59.05
10518;BME280;5307;42.548;22.968;2024-03-08T14:08:22;93828.81;;;8.92;57.85
10518;BME280;5307;42.548;22.968;2024-03-08T14:10:51;93826.25;;;9.23;58.52